Main page
METAR-TAF:

METAR-TAF

Airports :

Sardar Vallabhbhai Patel International Airport

Ahmedabad, India

latitude: 23-04N, longitude: 072-38E, elevation: 55 m

Current weather observation

The report was made 33 minutes ago, at 15:00 UTC
Wind 8 kt from the South
Temperature 30°C
Humidity 79%
Pressure 999 hPa
Visibility: 3500 m
Few clouds at a height of 2000 ft
Scattered clouds at a height of 2500 ft
Broken clouds at a height of 8000 ft
haze

METAR: VAAH 071500Z 18008KT 3500 HZ FEW020 SCT025 BKN080 30/26 Q0999 NOSIG

Time: 21:03 (15:33 UTC)

Forecast

The report was made 1 hour and 33 minutes ago, at 14:00 UTC
Forecast valid from 07 at 15 UTC to 07 at 24 UTC
Wind 10 kt from the South
Visibility: 4000 m
Scattered clouds at a height of 1200 ft
Scattered clouds at a height of 1800 ft
Broken clouds at a height of 8000 ft
drizzle, haze
Temporary
from 07 at 23 UTC to 07 at 24 UTC
Visibility: 2000 m
light rain

TAF: VAAH 071400Z 0715/0724 17010KT 4000 DZHZ SCT012 SCT018 BKN080 TEMPO 0723/0724 2000 -RA

Weather observations and forecasts of more than 4000 airports (METAR and TAF reports).

The available stations are represented by yellow and red dots on the map.

Hover mouse over dot to see the name of the station.

Then click to see weather observations and forecasts.

To change the map : click on the green buttons with a black cross to zoom in, on the green button with a dash to zoom out, or on the green arrows for adjacent maps.


METAR-TAF: